createdAt,value
2023-05-14T01:57:15.843Z,14.68
2023-05-14T01:57:47.681Z,14.45
2023-05-14T01:58:19.818Z,15.98
2023-05-14T01:58:52.817Z,13.80
2023-05-14T01:59:24.711Z,15.35
2023-05-14T01:59:56.526Z,15.15
2023-05-14T02:00:29.311Z,16.35
2023-05-14T02:01:01.356Z,14.23
2023-05-14T02:01:33.838Z,13.63
2023-05-14T02:02:06.764Z,15.77
2023-05-14T02:02:38.596Z,14.15
2023-05-14T02:03:10.444Z,14.05
2023-05-14T02:03:43.292Z,14.90
2023-05-14T02:04:15.470Z,13.48
2023-05-14T02:04:47.401Z,15.20
2023-05-14T02:05:20.971Z,15.02
2023-05-14T02:05:52.813Z,15.90
2023-05-14T02:06:24.575Z,15.90
2023-05-14T02:06:57.583Z,14.35
2023-05-14T02:07:29.504Z,15.88
2023-05-14T02:08:01.281Z,15.95
2023-05-14T02:08:33.077Z,15.02
2023-05-14T02:09:06.391Z,13.18
2023-05-14T02:09:38.467Z,15.20
2023-05-14T02:10:10.772Z,16.40
2023-05-14T02:10:43.549Z,16.30
2023-05-14T02:11:15.371Z,15.73
2023-05-14T02:11:47.169Z,15.25
2023-05-14T02:12:21.291Z,15.35
2023-05-14T02:12:53.099Z,15.30
2023-05-14T02:13:25.574Z,15.15
2023-05-14T02:13:58.448Z,15.90
2023-05-14T02:14:30.315Z,16.20
2023-05-14T02:15:02.374Z,15.80
2023-05-14T02:15:34.143Z,15.77
2023-05-14T02:16:07.643Z,15.32
2023-05-14T02:16:39.453Z,14.60
2023-05-14T02:17:11.587Z,15.68
2023-05-14T02:17:44.389Z,16.88
2023-05-14T02:18:16.199Z,15.73
2023-05-14T02:18:48.205Z,15.13
2023-05-14T02:19:20.991Z,15.05
2023-05-14T02:19:52.902Z,15.57
2023-05-14T02:20:24.797Z,16.30
2023-05-14T02:20:57.404Z,16.13
2023-05-14T02:21:30.705Z,16.48
2023-05-14T02:22:02.513Z,17.15
2023-05-14T02:22:34.305Z,16.65
2023-05-14T02:23:07.267Z,16.95
2023-05-14T02:23:42.017Z,15.40
2023-05-14T02:24:14.173Z,16.60
2023-05-14T02:24:46.974Z,17.23
2023-05-14T02:25:18.960Z,17.88
2023-05-14T02:25:51.361Z,16.65
2023-05-14T02:26:24.173Z,17.55
2023-05-14T02:26:55.977Z,15.73
2023-05-14T02:27:29.166Z,16.40
2023-05-14T02:28:00.988Z,15.63
2023-05-14T02:28:33.789Z,16.63
2023-05-14T02:29:05.646Z,16.35
2023-05-14T02:29:37.402Z,17.50
2023-05-14T02:30:11.708Z,16.95
2023-05-14T02:30:43.824Z,17.60
2023-05-14T02:31:17.373Z,18.27
2023-05-14T02:31:50.339Z,17.42
2023-05-14T02:32:22.253Z,16.65
2023-05-14T02:32:54.148Z,15.77
2023-05-14T02:33:27.037Z,17.33
2023-05-14T02:33:59.004Z,18.30
2023-05-14T02:34:30.882Z,16.80
2023-05-14T02:35:04.110Z,16.75
2023-05-14T02:35:36.270Z,24.48
2023-05-14T02:36:08.318Z,16.50
2023-05-14T02:36:41.082Z,16.27
2023-05-14T02:37:12.866Z,16.52
2023-05-14T02:37:44.655Z,16.52
2023-05-14T02:38:17.391Z,17.50
2023-05-14T02:38:49.160Z,16.52
2023-05-14T02:39:20.905Z,17.77
2023-05-14T02:39:53.844Z,17.27
2023-05-14T02:40:25.804Z,18.85
2023-05-14T02:40:57.856Z,15.77
2023-05-14T02:41:30.880Z,16.02
2023-05-14T02:42:02.757Z,15.82
2023-05-14T02:42:36.053Z,19.02
2023-05-14T02:43:08.776Z,16.23
2023-05-14T02:43:41.110Z,16.95
2023-05-14T02:44:12.935Z,17.98
2023-05-14T02:44:45.843Z,17.33
2023-05-14T02:45:17.663Z,17.95
2023-05-14T02:45:49.496Z,17.55
2023-05-14T02:46:22.333Z,17.75
2023-05-14T02:46:54.177Z,16.77
2023-05-14T02:47:25.993Z,17.23
2023-05-14T02:47:58.780Z,17.00
2023-05-14T02:48:30.568Z,17.38
2023-05-14T02:49:03.011Z,17.08
2023-05-14T02:49:35.799Z,17.77
2023-05-14T02:50:08.786Z,17.38
2023-05-14T02:50:40.634Z,14.35
2023-05-14T02:51:13.608Z,21.30
2023-05-14T02:51:45.372Z,15.70
2023-05-14T02:52:17.155Z,16.05
2023-05-14T02:52:49.912Z,17.85
2023-05-14T02:53:21.764Z,17.73
2023-05-14T02:53:54.503Z,17.70
2023-05-14T02:54:26.466Z,18.10
2023-05-14T02:54:58.253Z,17.52
2023-05-14T02:55:31.098Z,16.83
2023-05-14T02:56:03.082Z,17.83
2023-05-14T02:56:34.830Z,18.30
2023-05-14T02:57:07.543Z,15.52
2023-05-14T02:57:41.201Z,15.60
2023-05-14T02:58:13.002Z,17.23
2023-05-14T02:58:44.835Z,18.15
2023-05-14T02:59:17.669Z,17.85
2023-05-14T02:59:49.823Z,17.10
2023-05-14T03:00:22.306Z,16.85
2023-05-14T03:00:54.691Z,16.08
2023-05-14T03:01:27.892Z,16.83
2023-05-14T03:02:00.027Z,16.85
2023-05-14T03:02:32.477Z,16.92
2023-05-14T03:03:05.742Z,16.85
2023-05-14T03:03:38.273Z,18.75
2023-05-14T03:04:10.554Z,16.33
2023-05-14T03:04:43.284Z,17.25
2023-05-14T03:05:15.199Z,18.02
2023-05-14T03:05:47.036Z,16.58
2023-05-14T03:06:19.762Z,18.38
2023-05-14T03:06:51.539Z,16.55
2023-05-14T03:07:23.348Z,14.85
2023-05-14T03:07:55.268Z,16.92
2023-05-14T03:08:28.051Z,17.25
2023-05-14T03:08:59.878Z,16.05
2023-05-14T03:09:31.703Z,18.73
2023-05-14T03:10:04.754Z,18.90
2023-05-14T03:10:36.986Z,16.88
2023-05-14T03:11:08.846Z,16.27
2023-05-14T03:11:40.649Z,17.65
2023-05-14T03:12:14.259Z,17.20
2023-05-14T03:12:47.495Z,15.98
2023-05-14T03:13:20.646Z,16.80
2023-05-14T03:13:53.375Z,17.25
2023-05-14T03:14:25.127Z,16.92
2023-05-14T03:14:56.914Z,17.15
2023-05-14T03:15:29.818Z,17.05
2023-05-14T03:16:01.613Z,17.17
2023-05-14T03:16:33.463Z,17.30
2023-05-14T03:17:05.765Z,17.10
2023-05-14T03:17:38.610Z,17.50
2023-05-14T03:18:10.509Z,16.48
2023-05-14T03:18:42.371Z,17.77
2023-05-14T03:19:15.390Z,27.83
2023-05-14T03:19:47.253Z,17.73
2023-05-14T03:20:19.017Z,16.23
2023-05-14T03:20:51.774Z,17.50
2023-05-14T03:21:23.865Z,15.60
2023-05-14T03:21:55.684Z,17.38
2023-05-14T03:22:28.585Z,16.92
2023-05-14T03:23:00.444Z,16.67
2023-05-14T03:23:34.817Z,16.63
2023-05-14T03:24:07.932Z,16.80
2023-05-14T03:24:40.381Z,17.73
2023-05-14T03:25:12.346Z,14.48
2023-05-14T03:25:45.250Z,17.52
2023-05-14T03:26:17.018Z,16.85
2023-05-14T03:26:48.851Z,17.58
2023-05-14T03:27:21.759Z,17.15
2023-05-14T03:27:54.879Z,16.30
2023-05-14T03:28:26.865Z,16.55
2023-05-14T03:28:59.599Z,16.80
2023-05-14T03:29:31.407Z,14.85
2023-05-14T03:30:03.637Z,17.42
2023-05-14T03:30:36.437Z,17.27
2023-05-14T03:31:08.318Z,16.95
2023-05-14T03:31:40.209Z,18.23
2023-05-14T03:32:13.051Z,16.65
2023-05-14T03:32:45.258Z,16.60
2023-05-14T03:33:18.084Z,16.77
2023-05-14T03:33:50.882Z,16.17
2023-05-14T03:34:22.891Z,16.30
2023-05-14T03:34:54.700Z,18.75
2023-05-14T03:35:27.470Z,16.25
2023-05-14T03:35:59.256Z,16.83
2023-05-14T03:36:32.753Z,16.42
2023-05-14T03:37:04.973Z,16.77
2023-05-14T03:37:36.831Z,17.02
2023-05-14T03:38:08.663Z,15.68
2023-05-14T03:38:41.444Z,18.88
2023-05-14T03:39:15.378Z,15.68
2023-05-14T03:39:47.150Z,16.20
2023-05-14T03:40:21.464Z,15.82
2023-05-14T03:40:53.605Z,18.00
2023-05-14T03:41:26.066Z,17.02
2023-05-14T03:41:59.457Z,16.75
2023-05-14T03:42:31.222Z,16.98
2023-05-14T03:43:04.360Z,16.98
2023-05-14T03:43:37.130Z,18.13
2023-05-14T03:44:08.976Z,15.95
2023-05-14T03:44:40.787Z,15.38
2023-05-14T03:45:13.583Z,17.30
2023-05-14T03:45:45.694Z,18.17
2023-05-14T03:46:17.595Z,18.15
2023-05-14T03:46:50.548Z,16.98
2023-05-14T03:47:22.569Z,19.77
2023-05-14T03:47:54.544Z,17.85
2023-05-14T03:48:27.469Z,20.67
2023-05-14T03:48:59.491Z,17.27
2023-05-14T03:49:31.441Z,17.92
2023-05-14T03:50:04.371Z,18.05
2023-05-14T03:50:36.219Z,19.40
2023-05-14T03:51:08.101Z,17.92
2023-05-14T03:51:40.324Z,16.48
2023-05-14T03:52:13.101Z,18.00
2023-05-14T03:52:45.811Z,18.25
2023-05-14T03:53:17.610Z,19.48
2023-05-14T03:53:50.384Z,16.67
2023-05-14T03:54:22.167Z,16.90
2023-05-14T03:54:53.951Z,18.23
2023-05-14T03:55:26.710Z,24.63
2023-05-14T03:55:58.516Z,18.63
2023-05-14T03:56:30.307Z,17.92
2023-05-14T03:57:03.042Z,17.00
2023-05-14T03:57:34.839Z,17.50
2023-05-14T03:58:13.854Z,18.63
2023-05-14T03:58:46.596Z,20.95
2023-05-14T03:59:18.432Z,16.98
2023-05-14T03:59:50.288Z,17.42
2023-05-14T04:00:23.353Z,16.92
2023-05-14T04:00:55.438Z,18.05
2023-05-14T04:01:27.202Z,16.23
2023-05-14T04:01:59.998Z,18.10
2023-05-14T04:02:31.923Z,17.55
2023-05-14T04:03:03.956Z,17.08
2023-05-14T04:03:37.010Z,16.98
2023-05-14T04:04:09.037Z,17.75
2023-05-14T04:04:42.117Z,17.77
2023-05-14T04:05:14.889Z,19.05
2023-05-14T04:05:46.767Z,20.30
2023-05-14T04:06:18.570Z,17.52
2023-05-14T04:06:51.412Z,18.83
2023-05-14T04:07:23.193Z,18.45
2023-05-14T04:07:55.015Z,17.58
2023-05-14T04:08:27.766Z,17.55
2023-05-14T04:08:59.556Z,20.17
2023-05-14T04:09:31.328Z,17.20
2023-05-14T04:10:04.910Z,18.75
2023-05-14T04:10:36.813Z,18.45
2023-05-14T04:11:08.637Z,19.58
2023-05-14T04:11:41.446Z,18.38
2023-05-14T04:12:13.459Z,17.48
2023-05-14T04:12:45.309Z,18.95
2023-05-14T04:13:19.418Z,17.77
2023-05-14T04:13:51.302Z,18.25
2023-05-14T04:14:23.139Z,18.15
2023-05-14T04:14:54.972Z,18.38
2023-05-14T04:15:27.938Z,18.92
2023-05-14T04:16:00.358Z,20.20
2023-05-14T04:16:32.265Z,19.70
2023-05-14T04:17:05.452Z,19.42
2023-05-14T04:17:37.307Z,18.70
2023-05-14T04:18:09.289Z,20.33
2023-05-14T04:18:42.168Z,19.10
2023-05-14T04:19:14.075Z,19.33
2023-05-14T04:19:45.981Z,19.23
2023-05-14T04:20:18.890Z,21.75
2023-05-14T04:20:50.654Z,17.95
2023-05-14T04:21:22.462Z,19.02
2023-05-14T04:21:55.230Z,19.98
2023-05-14T04:22:27.010Z,19.40
2023-05-14T04:22:58.914Z,19.25
2023-05-14T04:23:32.247Z,20.30
2023-05-14T04:24:04.550Z,17.48
2023-05-14T04:24:36.427Z,19.23
2023-05-14T04:25:09.734Z,20.05
2023-05-14T04:25:42.071Z,20.35
2023-05-14T04:26:13.930Z,19.67
2023-05-14T04:26:46.713Z,19.48
2023-05-14T04:27:21.164Z,20.77
2023-05-14T04:27:53.010Z,19.27
2023-05-14T04:28:27.149Z,20.13
2023-05-14T04:29:02.755Z,16.77
2023-05-14T04:29:34.632Z,19.25
2023-05-14T04:30:08.811Z,19.60
2023-05-14T04:30:40.581Z,16.23
2023-05-14T04:31:12.918Z,21.23
2023-05-14T04:31:46.288Z,19.00
2023-05-14T04:32:18.171Z,19.48
2023-05-14T04:32:50.078Z,18.38
2023-05-14T04:33:22.896Z,18.60
2023-05-14T04:33:54.700Z,17.83
2023-05-14T04:34:26.593Z,19.42
2023-05-14T04:34:59.357Z,19.45
2023-05-14T04:35:31.201Z,19.13
2023-05-14T04:36:04.932Z,18.90
2023-05-14T04:36:37.697Z,19.42
2023-05-14T04:37:10.001Z,19.33
2023-05-14T04:37:41.787Z,18.95
2023-05-14T04:38:15.232Z,19.95
2023-05-14T04:38:47.083Z,20.92
2023-05-14T04:39:19.161Z,20.17
2023-05-14T04:39:51.922Z,20.58
2023-05-14T04:40:23.816Z,21.90
2023-05-14T04:40:56.854Z,18.10
2023-05-14T04:41:29.669Z,19.90
2023-05-14T04:42:01.454Z,19.25
2023-05-14T04:42:33.227Z,16.70
2023-05-14T04:43:06.131Z,18.80
2023-05-14T04:43:40.198Z,19.10
2023-05-14T04:44:12.946Z,19.50
2023-05-14T04:44:46.244Z,19.20
2023-05-14T04:45:18.087Z,18.13
2023-05-14T04:45:51.088Z,17.48
2023-05-14T04:46:23.884Z,20.33
2023-05-14T04:46:55.769Z,19.17
2023-05-14T04:47:27.666Z,20.35
2023-05-14T04:48:00.056Z,17.85
2023-05-14T04:48:33.015Z,19.38
2023-05-14T04:49:04.856Z,19.08
2023-05-14T04:49:36.690Z,17.80
2023-05-14T04:50:10.652Z,17.38
2023-05-14T04:50:42.515Z,19.55
2023-05-14T04:51:14.366Z,22.73
2023-05-14T04:51:48.030Z,20.48
2023-05-14T04:52:19.861Z,22.42
2023-05-14T04:52:51.750Z,19.75
2023-05-14T04:53:24.501Z,19.45
2023-05-14T04:53:56.272Z,19.48
2023-05-14T04:54:28.228Z,18.20
2023-05-14T04:55:01.005Z,18.42
2023-05-14T04:55:33.225Z,20.80
2023-05-14T04:56:05.138Z,19.42
2023-05-14T04:56:37.957Z,19.35
2023-05-14T04:57:09.767Z,19.00
2023-05-14T04:57:41.593Z,22.95
2023-05-14T04:58:14.338Z,19.67
2023-05-14T04:58:47.516Z,19.95
2023-05-14T04:59:19.292Z,22.50
2023-05-14T04:59:52.052Z,21.00
2023-05-14T05:00:24.308Z,20.20
2023-05-14T05:00:56.644Z,19.35
2023-05-14T05:01:29.476Z,20.48
2023-05-14T05:02:01.336Z,18.73
2023-05-14T05:02:34.659Z,18.98
2023-05-14T05:03:07.728Z,19.15
2023-05-14T05:03:39.701Z,19.92
2023-05-14T05:04:11.529Z,21.85
2023-05-14T05:04:44.364Z,21.60
2023-05-14T05:05:16.186Z,20.77
2023-05-14T05:05:47.974Z,21.88
2023-05-14T05:06:20.729Z,23.02
2023-05-14T05:06:52.567Z,21.00
2023-05-14T05:07:24.350Z,19.85
2023-05-14T05:07:57.199Z,20.23
2023-05-14T05:08:29.216Z,20.10
2023-05-14T05:09:02.138Z,19.38
2023-05-14T05:09:35.244Z,19.67
2023-05-14T05:10:08.517Z,22.25
2023-05-14T05:10:40.333Z,20.33
2023-05-14T05:11:13.079Z,20.90
2023-05-14T05:11:44.903Z,21.95
2023-05-14T05:12:16.720Z,20.27
2023-05-14T05:12:48.494Z,19.38
2023-05-14T05:13:21.284Z,21.85
2023-05-14T05:13:54.448Z,20.73
2023-05-14T05:14:26.267Z,21.80
2023-05-14T05:14:58.115Z,21.33
2023-05-14T05:15:30.892Z,21.40
2023-05-14T05:16:02.802Z,19.98
2023-05-14T05:16:34.850Z,21.55
2023-05-14T05:17:06.734Z,22.77
2023-05-14T05:17:39.501Z,21.65
2023-05-14T05:18:11.482Z,21.00
2023-05-14T05:18:44.476Z,20.80
2023-05-14T05:19:17.357Z,25.95
2023-05-14T05:19:49.300Z,22.75
2023-05-14T05:20:21.221Z,21.05
2023-05-14T05:20:54.059Z,19.38
2023-05-14T05:21:26.171Z,25.15
2023-05-14T05:21:58.155Z,22.80
2023-05-14T05:22:30.960Z,22.30
2023-05-14T05:23:02.780Z,25.20
2023-05-14T05:23:34.592Z,21.15
2023-05-14T05:24:07.803Z,20.77
2023-05-14T05:24:39.608Z,22.17
2023-05-14T05:25:12.774Z,21.95
2023-05-14T05:25:45.627Z,21.55
2023-05-14T05:26:17.408Z,24.23
2023-05-14T05:26:50.145Z,20.30
2023-05-14T05:27:22.245Z,23.15
2023-05-14T05:27:55.090Z,20.13
2023-05-14T05:28:26.888Z,20.70
2023-05-14T05:29:00.801Z,21.45
2023-05-14T05:29:33.594Z,20.25
2023-05-14T05:30:06.713Z,21.70
2023-05-14T05:30:38.489Z,22.90
2023-05-14T05:31:11.331Z,19.80
2023-05-14T05:31:43.228Z,23.45
2023-05-14T05:32:15.087Z,20.90
2023-05-14T05:32:48.097Z,21.10
2023-05-14T05:33:20.098Z,24.27
2023-05-14T05:33:51.975Z,23.75
2023-05-14T05:34:23.798Z,23.98
2023-05-14T05:34:56.625Z,21.20
2023-05-14T05:35:28.424Z,25.10
2023-05-14T05:36:00.297Z,22.00
2023-05-14T05:36:33.348Z,22.73
2023-05-14T05:37:06.095Z,20.52
2023-05-14T05:37:37.963Z,21.65
2023-05-14T05:38:10.747Z,20.42
2023-05-14T05:38:42.533Z,22.90
2023-05-14T05:39:14.367Z,24.17
2023-05-14T05:39:48.210Z,21.45
2023-05-14T05:40:20.126Z,22.35
2023-05-14T05:40:52.266Z,22.10
2023-05-14T05:41:25.116Z,20.63
2023-05-14T05:41:56.903Z,22.63
2023-05-14T05:42:28.731Z,24.42
2023-05-14T05:43:01.520Z,20.25
2023-05-14T05:43:34.076Z,21.30
2023-05-14T05:44:07.340Z,21.75
2023-05-14T05:44:40.083Z,27.90
2023-05-14T05:45:11.926Z,23.17
2023-05-14T05:45:45.796Z,24.60
2023-05-14T05:46:18.601Z,19.77
2023-05-14T05:46:50.991Z,23.35
2023-05-14T05:47:22.968Z,20.98
2023-05-14T05:47:55.776Z,22.80
2023-05-14T05:48:28.133Z,23.75
2023-05-14T05:48:59.902Z,23.60
2023-05-14T05:49:31.896Z,21.67
2023-05-14T05:50:05.259Z,23.60
2023-05-14T05:50:37.146Z,23.02
2023-05-14T05:51:09.014Z,22.15
2023-05-14T05:51:41.755Z,22.40
2023-05-14T05:52:13.672Z,21.65
2023-05-14T05:52:45.515Z,25.05
2023-05-14T05:53:18.390Z,22.88
2023-05-14T05:53:50.198Z,23.67
2023-05-14T05:54:24.023Z,23.00
2023-05-14T05:54:56.766Z,22.65
2023-05-14T05:55:28.687Z,25.70
2023-05-14T05:56:00.498Z,23.17
2023-05-14T05:56:33.290Z,21.40
2023-05-14T05:57:05.476Z,23.95
2023-05-14T05:57:37.252Z,23.42
2023-05-14T05:58:10.083Z,23.95
2023-05-14T05:58:41.906Z,23.15
2023-05-14T05:59:15.138Z,22.15
2023-05-14T05:59:47.888Z,21.33
2023-05-14T06:00:20.480Z,21.23
2023-05-14T06:00:53.232Z,25.20
2023-05-14T06:01:26.649Z,23.92
2023-05-14T06:01:58.862Z,22.58
2023-05-14T06:02:30.871Z,21.42
2023-05-14T06:03:03.813Z,23.60
2023-05-14T06:03:35.711Z,21.33
2023-05-14T06:04:07.508Z,23.40
2023-05-14T06:04:39.370Z,24.85
2023-05-14T06:05:12.527Z,21.40
2023-05-14T06:05:44.475Z,22.90
2023-05-14T06:06:16.287Z,22.40
2023-05-14T06:06:49.318Z,20.42
2023-05-14T06:07:21.158Z,25.13
2023-05-14T06:07:53.520Z,22.70
2023-05-14T06:08:26.355Z,22.88
2023-05-14T06:08:58.134Z,22.95
2023-05-14T06:09:29.951Z,21.58
2023-05-14T06:10:02.860Z,20.80
2023-05-14T06:10:34.910Z,20.27
2023-05-14T06:11:07.660Z,22.55
2023-05-14T06:11:39.470Z,23.25
2023-05-14T06:12:11.303Z,22.52
2023-05-14T06:12:44.058Z,21.67
2023-05-14T06:13:15.879Z,21.40
2023-05-14T06:13:47.764Z,22.92
2023-05-14T06:14:21.889Z,23.85
2023-05-14T06:14:55.335Z,21.45
2023-05-14T06:15:27.134Z,22.73
2023-05-14T06:15:59.933Z,23.65
2023-05-14T06:16:31.884Z,21.23
2023-05-14T06:17:03.897Z,21.13
2023-05-14T06:17:36.722Z,21.88
2023-05-14T06:18:08.840Z,20.00
2023-05-14T06:18:40.775Z,24.85
2023-05-14T06:19:13.786Z,22.95
2023-05-14T06:19:45.781Z,21.70
2023-05-14T06:20:17.758Z,20.48
2023-05-14T06:20:50.571Z,23.23
2023-05-14T06:21:22.440Z,22.08
2023-05-14T06:21:54.216Z,21.23
2023-05-14T06:22:27.058Z,22.77
2023-05-14T06:22:58.841Z,22.58
2023-05-14T06:23:30.631Z,20.73
2023-05-14T06:24:03.536Z,21.77
2023-05-14T06:24:35.399Z,21.20
2023-05-14T06:25:08.291Z,26.30
2023-05-14T06:25:41.060Z,22.85
2023-05-14T06:26:13.041Z,22.98
2023-05-14T06:26:44.854Z,20.60
2023-05-14T06:27:17.621Z,20.42
2023-05-14T06:27:49.438Z,21.55
2023-05-14T06:28:21.235Z,23.35
2023-05-14T06:28:54.103Z,22.90
2023-05-14T06:29:27.303Z,20.38
2023-05-14T06:29:59.079Z,21.35
2023-05-14T06:30:31.815Z,21.77
2023-05-14T06:31:03.851Z,24.05
2023-05-14T06:31:35.880Z,23.10
2023-05-14T06:32:10.178Z,21.60
2023-05-14T06:32:42.032Z,22.63
2023-05-14T06:33:14.948Z,24.45
2023-05-14T06:33:47.676Z,22.55
2023-05-14T06:34:19.554Z,22.73
2023-05-14T06:34:51.331Z,22.80
2023-05-14T06:35:25.003Z,21.40
2023-05-14T06:35:57.020Z,24.08
2023-05-14T06:36:28.799Z,22.05
2023-05-14T06:37:03.462Z,23.75
2023-05-14T06:37:35.239Z,23.35
2023-05-14T06:38:07.012Z,22.08
2023-05-14T06:38:39.754Z,21.05
2023-05-14T06:39:12.471Z,21.05
2023-05-14T06:39:49.738Z,22.20
2023-05-14T06:40:22.982Z,19.90
2023-05-14T06:40:55.044Z,20.00
2023-05-14T06:41:26.826Z,21.42
2023-05-14T06:41:59.594Z,24.25
2023-05-14T06:42:31.398Z,21.13
2023-05-14T06:43:03.254Z,21.33
2023-05-14T06:43:36.038Z,20.58
2023-05-14T06:44:07.823Z,22.10
2023-05-14T06:44:41.085Z,20.48
2023-05-14T06:45:13.823Z,21.70
2023-05-14T06:45:48.862Z,21.65
2023-05-14T06:46:20.704Z,21.58
2023-05-14T06:46:53.453Z,20.98
2023-05-14T06:47:25.511Z,22.95
2023-05-14T06:47:57.373Z,23.98
2023-05-14T06:48:30.768Z,17.55
2023-05-14T06:49:02.652Z,20.27
2023-05-14T06:49:34.564Z,20.58
2023-05-14T06:50:10.113Z,21.30
2023-05-14T06:50:42.588Z,20.38
2023-05-14T06:51:14.392Z,20.70
2023-05-14T06:51:47.167Z,20.65
2023-05-14T06:52:18.942Z,21.90
2023-05-14T06:52:50.716Z,20.60
2023-05-14T06:53:23.564Z,26.90
2023-05-14T06:53:55.590Z,20.13
2023-05-14T06:54:27.421Z,20.40
2023-05-14T06:55:00.190Z,19.95
2023-05-14T06:55:31.988Z,18.85
2023-05-14T06:56:04.123Z,24.25
2023-05-14T06:56:36.957Z,20.42
2023-05-14T06:57:08.730Z,20.95
2023-05-14T06:57:40.948Z,21.08
2023-05-14T06:58:12.871Z,21.20
2023-05-14T06:58:45.677Z,21.80
2023-05-14T06:59:17.580Z,20.77
2023-05-14T06:59:50.714Z,20.83
2023-05-14T07:00:24.230Z,21.17
2023-05-14T07:00:56.351Z,21.80
2023-05-14T07:01:28.225Z,20.50
2023-05-14T07:02:01.220Z,21.67
2023-05-14T07:02:33.112Z,19.95
2023-05-14T07:03:04.993Z,21.20
2023-05-14T07:03:37.803Z,20.73
2023-05-14T07:04:09.592Z,21.15
2023-05-14T07:04:41.541Z,21.35
2023-05-14T07:05:14.730Z,23.35
2023-05-14T07:05:47.174Z,21.38
2023-05-14T07:06:18.965Z,20.33
2023-05-14T07:06:51.733Z,22.40
2023-05-14T07:07:23.537Z,20.45
2023-05-14T07:07:55.483Z,19.90
2023-05-14T07:08:28.325Z,20.98
2023-05-14T07:09:01.897Z,21.85
2023-05-14T07:09:33.718Z,20.65
2023-05-14T07:10:08.131Z,22.77
2023-05-14T07:10:40.096Z,22.55
2023-05-14T07:11:11.887Z,22.65
2023-05-14T07:11:44.641Z,21.90
2023-05-14T07:12:16.427Z,22.85
2023-05-14T07:12:48.582Z,21.17
2023-05-14T07:13:21.335Z,23.27
2023-05-14T07:13:53.314Z,22.38
2023-05-14T07:14:25.242Z,20.77
2023-05-14T07:14:59.352Z,24.17
2023-05-14T07:15:31.349Z,23.40
2023-05-14T07:16:04.079Z,20.05
2023-05-14T07:16:36.283Z,22.60
2023-05-14T07:17:08.105Z,21.98
2023-05-14T07:17:40.949Z,22.27
2023-05-14T07:18:12.817Z,21.45
2023-05-14T07:18:45.281Z,21.33
2023-05-14T07:19:18.115Z,20.67
2023-05-14T07:19:50.039Z,21.95
2023-05-14T07:20:24.024Z,21.70
2023-05-14T07:20:56.077Z,21.65
2023-05-14T07:21:27.993Z,19.20
2023-05-14T07:22:01.151Z,22.00
2023-05-14T07:22:32.969Z,20.67
2023-05-14T07:23:04.816Z,21.77
2023-05-14T07:23:38.271Z,20.77
2023-05-14T07:24:10.069Z,21.40
2023-05-14T07:24:41.818Z,21.60
2023-05-14T07:25:14.617Z,20.52
2023-05-14T07:25:46.521Z,20.17
2023-05-14T07:26:18.304Z,20.23
2023-05-14T07:26:51.130Z,20.30
2023-05-14T07:27:22.950Z,21.45
2023-05-14T07:27:55.697Z,20.33
2023-05-14T07:28:27.526Z,20.52
2023-05-14T07:28:59.357Z,19.13
2023-05-14T07:29:34.834Z,18.17
2023-05-14T07:30:09.145Z,19.02
2023-05-14T07:30:41.865Z,19.73
2023-05-14T07:31:13.696Z,18.50
2023-05-14T07:31:45.578Z,20.10
2023-05-14T07:32:18.398Z,18.90
2023-05-14T07:32:50.297Z,20.25
2023-05-14T07:33:22.635Z,25.33
2023-05-14T07:33:55.472Z,20.98
2023-05-14T07:34:28.089Z,20.20
2023-05-14T07:34:59.978Z,19.42
2023-05-14T07:35:32.887Z,19.08
2023-05-14T07:36:05.246Z,20.42
2023-05-14T07:36:37.072Z,20.40
2023-05-14T07:37:10.097Z,20.40
2023-05-14T07:37:42.825Z,19.60
2023-05-14T07:38:15.241Z,21.08
2023-05-14T07:38:48.050Z,19.45
2023-05-14T07:39:20.217Z,19.20
2023-05-14T07:39:52.127Z,19.27
2023-05-14T07:40:25.913Z,19.48
2023-05-14T07:40:58.392Z,18.35
2023-05-14T07:41:30.177Z,19.08
2023-05-14T07:42:03.231Z,18.55
2023-05-14T07:42:36.922Z,18.38
2023-05-14T07:43:09.942Z,17.85
2023-05-14T07:43:42.856Z,19.08
2023-05-14T07:44:14.651Z,19.10
2023-05-14T07:44:46.621Z,19.60
2023-05-14T07:45:20.705Z,19.23
2023-05-14T07:45:52.584Z,18.10
2023-05-14T07:46:25.645Z,20.13
2023-05-14T07:46:58.434Z,17.35
2023-05-14T07:47:30.393Z,18.23
2023-05-14T07:48:02.410Z,20.08
2023-05-14T07:48:35.282Z,19.00
2023-05-14T07:49:07.107Z,19.40
2023-05-14T07:49:39.851Z,20.02
2023-05-14T07:50:11.928Z,19.63
2023-05-14T07:50:43.734Z,18.90
2023-05-14T07:51:16.473Z,19.55
2023-05-14T07:51:48.260Z,20.02
2023-05-14T07:52:20.082Z,18.92
2023-05-14T07:52:52.816Z,18.88
2023-05-14T07:53:24.891Z,18.27
2023-05-14T07:53:57.640Z,19.65
2023-05-14T07:54:29.480Z,18.83
2023-05-14T07:55:02.264Z,19.08
2023-05-14T07:55:35.189Z,18.92
2023-05-14T07:56:08.234Z,18.50
2023-05-14T07:56:40.128Z,19.15
2023-05-14T07:57:12.931Z,18.20
2023-05-14T07:57:45.537Z,18.55
2023-05-14T07:58:17.358Z,18.20
2023-05-14T07:58:50.190Z,19.15
2023-05-14T07:59:22.036Z,20.42
2023-05-14T07:59:53.799Z,18.17
2023-05-14T08:00:28.052Z,18.05
2023-05-14T08:01:01.250Z,19.98
2023-05-14T08:01:34.015Z,18.10
2023-05-14T08:02:06.398Z,18.00
2023-05-14T08:02:38.328Z,19.60
2023-05-14T08:03:11.245Z,17.45
2023-05-14T08:03:43.296Z,16.73
2023-05-14T08:04:16.169Z,18.55
2023-05-14T08:04:49.048Z,19.05
2023-05-14T08:05:21.165Z,17.77
2023-05-14T08:05:53.020Z,19.58
2023-05-14T08:06:27.432Z,17.88
2023-05-14T08:06:59.221Z,18.70
2023-05-14T08:07:32.131Z,17.90
2023-05-14T08:08:04.154Z,18.75
2023-05-14T08:08:36.223Z,19.58
2023-05-14T08:09:09.587Z,17.00
2023-05-14T08:09:41.416Z,18.85
2023-05-14T08:10:13.225Z,18.98
2023-05-14T08:10:46.034Z,17.25
2023-05-14T08:11:17.919Z,17.77
2023-05-14T08:11:50.758Z,19.00
2023-05-14T08:12:22.551Z,16.15
2023-05-14T08:12:54.418Z,17.80
2023-05-14T08:13:27.177Z,17.10
2023-05-14T08:13:58.999Z,17.20
2023-05-14T08:14:30.809Z,16.13
2023-05-14T08:15:04.078Z,17.67
2023-05-14T08:15:37.227Z,15.38
2023-05-14T08:16:09.069Z,15.43
2023-05-14T08:16:41.877Z,16.75
2023-05-14T08:17:13.727Z,15.15
2023-05-14T08:17:45.759Z,17.30
2023-05-14T08:18:18.603Z,14.93
2023-05-14T08:18:50.489Z,15.77
2023-05-14T08:19:23.163Z,16.65
2023-05-14T08:19:55.944Z,16.67
2023-05-14T08:20:28.167Z,15.90
2023-05-14T08:21:01.057Z,16.00
2023-05-14T08:21:34.997Z,16.75
2023-05-14T08:22:07.106Z,15.52
2023-05-14T08:22:38.915Z,16.15
2023-05-14T08:23:11.766Z,16.52
2023-05-14T08:23:43.627Z,16.38
2023-05-14T08:24:15.453Z,16.95
2023-05-14T08:24:48.751Z,15.25
2023-05-14T08:25:20.664Z,16.25
2023-05-14T08:25:53.467Z,15.00
2023-05-14T08:26:25.804Z,13.65
2023-05-14T08:26:57.684Z,15.15
2023-05-14T08:27:30.539Z,15.75
2023-05-14T08:28:02.357Z,14.20
2023-05-14T08:28:35.140Z,15.27
2023-05-14T08:29:07.482Z,15.95
2023-05-14T08:29:40.552Z,16.55
2023-05-14T08:30:14.143Z,14.73
2023-05-14T08:30:47.457Z,15.43
2023-05-14T08:31:19.349Z,15.35
2023-05-14T08:31:52.258Z,15.05
2023-05-14T08:32:24.426Z,15.20
2023-05-14T08:32:56.460Z,15.23
2023-05-14T08:33:29.234Z,15.38
2023-05-14T08:34:01.240Z,15.52
2023-05-14T08:34:33.026Z,14.40
2023-05-14T08:35:06.698Z,15.10
2023-05-14T08:35:38.486Z,16.15
2023-05-14T08:36:10.292Z,16.00
2023-05-14T08:36:43.176Z,15.68
2023-05-14T08:37:15.012Z,13.45
2023-05-14T08:37:47.800Z,15.88
2023-05-14T08:38:19.598Z,16.08
2023-05-14T08:38:51.374Z,15.95
2023-05-14T08:39:24.151Z,16.25
2023-05-14T08:39:56.214Z,16.83
2023-05-14T08:40:28.145Z,16.25
2023-05-14T08:41:01.186Z,14.25
2023-05-14T08:41:33.172Z,14.30
2023-05-14T08:42:07.656Z,15.25
2023-05-14T08:42:41.659Z,16.13
2023-05-14T08:43:18.934Z,17.42
2023-05-14T08:44:01.872Z,15.15
2023-05-14T08:44:39.134Z,13.63
2023-05-14T08:45:17.425Z,14.68
2023-05-14T08:45:54.001Z,14.85
2023-05-14T08:46:29.071Z,14.75
2023-05-14T08:47:02.386Z,16.05
2023-05-14T08:47:35.036Z,16.52
2023-05-14T08:48:09.711Z,15.48
2023-05-14T08:48:44.376Z,16.73
2023-05-14T08:49:28.591Z,15.07
2023-05-14T08:50:04.790Z,14.68
2023-05-14T08:50:36.897Z,14.00
2023-05-14T08:51:09.412Z,16.13
2023-05-14T08:51:42.735Z,17.17
2023-05-14T08:52:17.933Z,17.00
2023-05-14T08:52:49.887Z,17.88
2023-05-14T08:53:22.643Z,16.80
2023-05-14T08:53:54.661Z,15.15
2023-05-14T08:54:27.033Z,16.95
2023-05-14T08:55:01.589Z,16.10
2023-05-14T08:55:34.170Z,14.90